createdAt,value
2017-07-28T00:01:50.644Z,17.07
2017-07-28T00:04:18.095Z,16.98
2017-07-28T00:06:45.564Z,16.95
2017-07-28T00:09:13.009Z,16.93
2017-07-28T00:11:40.477Z,16.96
2017-07-28T00:14:07.961Z,16.95
2017-07-28T00:16:35.405Z,16.95
2017-07-28T00:19:02.849Z,17.01
2017-07-28T00:21:30.322Z,17.09
2017-07-28T00:23:57.762Z,16.91
2017-07-28T00:26:25.543Z,16.99
2017-07-28T00:28:52.984Z,17.01
2017-07-28T00:31:20.720Z,17.04
2017-07-28T00:33:48.185Z,17.05
2017-07-28T00:36:15.635Z,16.90
2017-07-28T00:38:43.081Z,16.76
2017-07-28T00:41:10.546Z,16.77
2017-07-28T00:43:37.995Z,16.79
2017-07-28T00:46:05.445Z,16.92
2017-07-28T00:48:33.306Z,16.84
2017-07-28T00:51:00.776Z,16.95
2017-07-28T00:53:28.213Z,16.94
2017-07-28T00:55:55.685Z,16.87
2017-07-28T00:58:23.134Z,16.83
2017-07-28T01:00:50.604Z,16.87
2017-07-28T01:03:18.046Z,16.80
2017-07-28T01:05:45.494Z,16.86
2017-07-28T01:08:12.953Z,16.87
2017-07-28T01:10:40.395Z,16.86
2017-07-28T01:13:08.191Z,16.77
2017-07-28T01:15:35.636Z,16.83
2017-07-28T01:18:03.076Z,16.86
2017-07-28T01:20:30.547Z,16.83
2017-07-28T01:22:58.017Z,16.75
2017-07-28T01:25:25.463Z,16.79
2017-07-28T01:27:52.938Z,16.59
2017-07-28T01:30:20.383Z,16.56
2017-07-28T01:32:47.831Z,16.78
2017-07-28T01:35:15.296Z,16.64
2017-07-28T01:37:42.746Z,16.80
2017-07-28T01:40:10.221Z,16.82
2017-07-28T01:42:37.673Z,16.76
2017-07-28T01:45:05.141Z,16.74
2017-07-28T01:47:32.592Z,16.70
2017-07-28T01:50:00.036Z,16.73
2017-07-28T01:52:27.692Z,16.74
2017-07-28T01:54:55.347Z,16.71
2017-07-28T01:57:22.781Z,16.61
2017-07-28T01:59:50.228Z,16.60
2017-07-28T02:02:17.717Z,16.55
2017-07-28T02:04:45.161Z,16.51
2017-07-28T02:07:12.609Z,16.44
2017-07-28T02:09:40.073Z,16.42
2017-07-28T02:12:07.601Z,16.34
2017-07-28T02:14:35.077Z,16.41
2017-07-28T02:17:02.854Z,16.47
2017-07-28T02:19:30.337Z,16.44
2017-07-28T02:21:57.790Z,16.51
2017-07-28T02:24:25.238Z,16.35
2017-07-28T02:26:52.705Z,16.38
2017-07-28T02:29:20.165Z,16.34
2017-07-28T02:31:47.640Z,16.44
2017-07-28T02:34:15.081Z,16.40
2017-07-28T02:36:42.529Z,16.33
2017-07-28T02:39:10.001Z,16.44
2017-07-28T02:41:37.457Z,16.37
2017-07-28T02:44:05.145Z,16.39
2017-07-28T02:46:32.590Z,16.42
2017-07-28T02:49:00.041Z,16.37
2017-07-28T02:51:27.510Z,16.35
2017-07-28T02:53:54.963Z,16.31
2017-07-28T02:56:22.431Z,16.23
2017-07-28T02:58:49.884Z,16.19
2017-07-28T03:01:17.469Z,16.16
2017-07-28T03:03:44.904Z,16.12
2017-07-28T03:06:12.352Z,16.11
2017-07-28T03:08:39.825Z,16.16
2017-07-28T03:11:07.293Z,16.15
2017-07-28T03:13:34.741Z,16.15
2017-07-28T03:16:02.208Z,16.15
2017-07-28T03:18:29.641Z,16.21
2017-07-28T03:20:57.105Z,16.21
2017-07-28T03:23:24.719Z,16.10
2017-07-28T03:25:52.169Z,16.14
2017-07-28T03:28:19.621Z,16.13
2017-07-28T03:30:47.091Z,16.24
2017-07-28T03:33:14.633Z,16.27
2017-07-28T03:35:42.080Z,16.28
2017-07-28T03:38:09.549Z,16.29
2017-07-28T03:40:36.992Z,16.26
2017-07-28T03:43:04.437Z,16.31
2017-07-28T03:45:31.914Z,16.22
2017-07-28T03:47:59.368Z,17.50
2017-07-28T03:50:26.829Z,16.52
2017-07-28T03:52:54.296Z,16.39
2017-07-28T03:55:21.737Z,16.28
2017-07-28T03:57:49.200Z,16.33
2017-07-28T04:00:16.661Z,16.30
2017-07-28T04:02:44.134Z,16.25
2017-07-28T04:05:11.584Z,16.27
2017-07-28T04:07:39.071Z,16.33
2017-07-28T04:10:06.514Z,16.35
2017-07-28T04:12:33.964Z,16.38
2017-07-28T04:15:01.765Z,16.36
2017-07-28T04:17:29.209Z,16.37
2017-07-28T04:19:56.654Z,16.42
2017-07-28T04:22:24.143Z,16.44
2017-07-28T04:24:51.587Z,16.38
2017-07-28T04:27:19.054Z,16.35
2017-07-28T04:29:46.504Z,16.41
2017-07-28T04:32:13.973Z,16.47
2017-07-28T04:34:41.421Z,16.48
2017-07-28T04:37:08.866Z,16.62
2017-07-28T04:39:36.346Z,16.63
2017-07-28T04:42:03.795Z,16.61
2017-07-28T04:44:31.257Z,16.68
2017-07-28T04:46:58.723Z,16.61
2017-07-28T04:49:26.192Z,16.68
2017-07-28T04:51:53.636Z,16.59
2017-07-28T04:54:21.084Z,16.62
2017-07-28T04:56:48.550Z,16.84
2017-07-28T04:59:16.013Z,16.80
2017-07-28T05:01:43.465Z,16.69
2017-07-28T05:04:10.930Z,16.82
2017-07-28T05:06:38.381Z,16.87
2017-07-28T05:09:05.850Z,16.82
2017-07-28T05:11:33.303Z,16.92
2017-07-28T05:14:00.784Z,16.98
2017-07-28T05:16:28.236Z,17.04
2017-07-28T05:18:55.681Z,16.96
2017-07-28T05:21:23.150Z,17.06
2017-07-28T05:23:50.595Z,17.07
2017-07-28T05:26:18.033Z,17.13
2017-07-28T05:28:45.518Z,17.05
2017-07-28T05:31:12.970Z,17.28
2017-07-28T05:33:40.420Z,17.39
2017-07-28T05:36:07.902Z,17.71
2017-07-28T05:38:35.345Z,17.83
2017-07-28T05:41:02.792Z,17.90
2017-07-28T05:43:30.265Z,18.04
2017-07-28T05:45:57.716Z,18.17
2017-07-28T05:48:25.329Z,18.20
2017-07-28T05:50:52.788Z,18.37
2017-07-28T05:53:20.230Z,18.42
2017-07-28T05:55:47.700Z,18.39
2017-07-28T05:58:15.146Z,18.36
2017-07-28T06:00:42.621Z,18.32
2017-07-28T06:03:10.092Z,18.25
2017-07-28T06:05:37.556Z,18.24
2017-07-28T06:08:05.033Z,18.14
2017-07-28T06:10:32.476Z,17.93
2017-07-28T06:12:59.921Z,18.15
2017-07-28T06:15:27.393Z,18.34
2017-07-28T06:17:54.841Z,18.27
2017-07-28T06:20:22.308Z,18.16
2017-07-28T06:22:49.744Z,18.09
2017-07-28T06:25:17.215Z,18.08
2017-07-28T06:27:44.683Z,17.97
2017-07-28T06:30:12.127Z,18.19
2017-07-28T06:32:39.591Z,18.48
2017-07-28T06:35:07.298Z,18.22
2017-07-28T06:37:34.747Z,18.26
2017-07-28T06:40:02.192Z,18.43
2017-07-28T06:42:29.657Z,18.51
2017-07-28T06:44:57.095Z,18.65
2017-07-28T06:47:24.538Z,18.67
2017-07-28T06:49:52.009Z,19.18
2017-07-28T06:52:19.448Z,19.21
2017-07-28T06:54:46.923Z,19.37
2017-07-28T06:57:14.759Z,19.35
2017-07-28T06:59:42.200Z,19.41
2017-07-28T07:02:09.649Z,19.09
2017-07-28T07:07:13.776Z,19.25
2017-07-28T07:09:41.245Z,19.13
2017-07-28T07:12:08.696Z,19.10
2017-07-28T07:14:36.267Z,19.41
2017-07-28T07:17:03.945Z,19.46
2017-07-28T07:19:31.392Z,19.57
2017-07-28T07:21:58.848Z,19.68
2017-07-28T07:24:26.324Z,19.87
2017-07-28T07:26:53.772Z,19.58
2017-07-28T07:29:21.224Z,20.12
2017-07-28T07:31:48.694Z,19.77
2017-07-28T07:34:16.144Z,20.01
2017-07-28T07:36:43.613Z,19.89
2017-07-28T07:39:11.057Z,19.98
2017-07-28T07:41:38.849Z,19.94
2017-07-28T07:44:06.289Z,19.97
2017-07-28T07:46:33.734Z,20.32
2017-07-28T07:49:01.224Z,20.33
2017-07-28T07:51:28.661Z,20.48
2017-07-28T07:53:56.106Z,20.79
2017-07-28T07:56:23.582Z,20.33
2017-07-28T07:58:51.025Z,20.70
2017-07-28T08:01:18.489Z,20.55
2017-07-28T08:03:45.952Z,20.66
2017-07-28T08:06:13.403Z,20.80
2017-07-28T08:08:40.868Z,20.74
2017-07-28T08:11:08.318Z,20.75
2017-07-28T08:13:35.793Z,20.68
2017-07-28T08:16:03.232Z,20.52
2017-07-28T08:18:30.711Z,20.87
2017-07-28T08:20:58.160Z,21.22
2017-07-28T08:23:25.605Z,21.19
2017-07-28T08:25:53.076Z,21.66
2017-07-28T08:28:20.561Z,21.68
2017-07-28T08:30:48.001Z,21.56
2017-07-28T08:33:15.446Z,21.59
2017-07-28T08:35:42.916Z,21.75
2017-07-28T08:38:10.376Z,21.46
2017-07-28T08:40:37.845Z,21.47
2017-07-28T08:43:05.324Z,21.43
2017-07-28T08:45:32.894Z,21.60
2017-07-28T08:48:00.342Z,21.75
2017-07-28T08:50:27.787Z,21.89
2017-07-28T08:52:55.253Z,21.48
2017-07-28T08:55:22.700Z,21.95
2017-07-28T08:57:50.161Z,22.08
2017-07-28T09:00:17.613Z,21.88
2017-07-28T09:02:45.078Z,21.84
2017-07-28T09:05:12.558Z,21.94
2017-07-28T09:07:40.032Z,22.18
2017-07-28T09:10:07.482Z,22.03
2017-07-28T09:12:34.978Z,22.33
2017-07-28T09:15:02.439Z,22.26
2017-07-28T09:17:29.906Z,22.00
2017-07-28T09:19:57.374Z,22.20
2017-07-28T09:22:24.836Z,22.26
2017-07-28T09:24:52.338Z,22.24
2017-07-28T09:27:19.787Z,22.22
2017-07-28T09:29:47.250Z,22.23
2017-07-28T09:32:14.698Z,22.34
2017-07-28T09:34:42.313Z,22.64
2017-07-28T09:37:09.788Z,22.64
2017-07-28T09:39:37.232Z,21.99
2017-07-28T09:42:04.704Z,22.42
2017-07-28T09:44:32.146Z,22.64
2017-07-28T09:46:59.620Z,22.93
2017-07-28T09:49:27.133Z,22.52
2017-07-28T09:51:54.587Z,22.65
2017-07-28T09:54:22.049Z,22.62
2017-07-28T09:56:49.515Z,22.64
2017-07-28T09:59:17.186Z,23.29
2017-07-28T10:01:44.633Z,23.36
2017-07-28T10:04:12.098Z,23.34
2017-07-28T10:06:39.573Z,24.01
2017-07-28T10:09:07.026Z,24.54
2017-07-28T10:11:34.506Z,23.82
2017-07-28T10:14:01.974Z,23.36
2017-07-28T10:16:29.421Z,23.95
2017-07-28T10:18:56.883Z,23.96
2017-07-28T10:21:24.385Z,23.51
2017-07-28T10:23:51.840Z,23.44
2017-07-28T10:26:19.324Z,23.74
2017-07-28T10:28:46.770Z,23.59
2017-07-28T10:31:14.209Z,23.85
2017-07-28T10:33:41.686Z,24.71
2017-07-28T10:36:09.153Z,24.22
2017-07-28T10:38:36.607Z,23.67
2017-07-28T10:41:04.362Z,23.60
2017-07-28T10:43:31.853Z,23.74
2017-07-28T10:45:59.298Z,24.21
2017-07-28T10:48:26.760Z,24.11
2017-07-28T10:50:54.231Z,24.06
2017-07-28T10:53:21.721Z,24.08
2017-07-28T10:55:49.180Z,24.13
2017-07-28T10:58:16.643Z,24.20
2017-07-28T11:00:44.081Z,24.23
2017-07-28T11:03:11.545Z,24.79
2017-07-28T11:05:38.993Z,25.33
2017-07-28T11:08:06.485Z,25.34
2017-07-28T11:10:33.926Z,24.32
2017-07-28T11:13:01.404Z,23.89
2017-07-28T11:15:28.848Z,24.51
2017-07-28T11:17:56.298Z,24.82
2017-07-28T11:20:23.774Z,25.57
2017-07-28T11:22:51.217Z,25.06
2017-07-28T11:25:18.681Z,25.16
2017-07-28T11:27:46.133Z,25.04
2017-07-28T11:30:13.593Z,24.73
2017-07-28T11:32:41.060Z,25.18
2017-07-28T11:35:08.518Z,24.91
2017-07-28T11:37:35.981Z,25.56
2017-07-28T11:40:03.449Z,24.78
2017-07-28T11:42:30.925Z,24.00
2017-07-28T11:44:58.384Z,24.41
2017-07-28T11:47:25.864Z,24.19
2017-07-28T11:49:53.329Z,24.10
2017-07-28T11:52:20.798Z,24.51
2017-07-28T11:54:48.249Z,24.24
2017-07-28T11:57:15.711Z,24.14
2017-07-28T11:59:43.185Z,24.04
2017-07-28T12:02:10.648Z,24.00
2017-07-28T12:04:38.114Z,23.59
2017-07-28T12:07:05.597Z,23.49
2017-07-28T12:09:33.047Z,23.04
2017-07-28T12:12:00.765Z,22.97
2017-07-28T12:14:28.208Z,23.01
2017-07-28T12:16:55.649Z,22.88
2017-07-28T12:19:23.133Z,22.87
2017-07-28T12:21:50.597Z,22.98
2017-07-28T12:24:18.048Z,23.20
2017-07-28T12:26:45.509Z,23.18
2017-07-28T12:29:12.956Z,23.12
2017-07-28T12:31:40.429Z,22.93
2017-07-28T12:34:07.877Z,23.00
2017-07-28T12:36:35.344Z,23.22
2017-07-28T12:39:02.823Z,23.04
2017-07-28T12:41:30.265Z,23.58
2017-07-28T12:43:57.732Z,23.80
2017-07-28T12:46:25.192Z,23.07
2017-07-28T12:48:52.648Z,23.28
2017-07-28T12:51:20.118Z,23.92
2017-07-28T12:53:47.584Z,23.28
2017-07-28T12:56:15.057Z,23.07
2017-07-28T12:58:42.507Z,23.34
2017-07-28T13:01:10.164Z,23.01
2017-07-28T13:03:37.618Z,23.27
2017-07-28T13:06:06.309Z,23.00
2017-07-28T13:08:33.782Z,22.95
2017-07-28T13:11:01.224Z,22.70
2017-07-28T13:13:28.749Z,22.64
2017-07-28T13:15:56.193Z,22.86
2017-07-28T13:18:23.672Z,22.60
2017-07-28T13:20:51.121Z,22.90
2017-07-28T13:23:18.598Z,23.13
2017-07-28T13:25:46.078Z,22.83
2017-07-28T13:28:13.539Z,22.79
2017-07-28T13:30:41.032Z,22.74
2017-07-28T13:33:08.478Z,23.38
2017-07-28T13:35:35.997Z,23.59
2017-07-28T13:38:03.461Z,22.98
2017-07-28T13:40:30.956Z,23.29
2017-07-28T13:42:58.397Z,23.08
2017-07-28T13:45:25.841Z,23.03
2017-07-28T13:47:53.311Z,22.66
2017-07-28T13:50:20.758Z,22.77
2017-07-28T13:52:48.235Z,22.74
2017-07-28T13:55:15.677Z,22.94
2017-07-28T13:57:43.149Z,23.21
2017-07-28T14:00:10.596Z,22.86
2017-07-28T14:02:38.057Z,22.70
2017-07-28T14:05:06.298Z,22.58
2017-07-28T14:07:34.925Z,22.69
2017-07-28T14:10:02.524Z,22.59
2017-07-28T14:12:29.969Z,22.96
2017-07-28T14:14:57.652Z,22.58
2017-07-28T14:17:25.856Z,22.54
2017-07-28T14:19:53.687Z,23.04
2017-07-28T14:22:21.282Z,22.81
2017-07-28T14:24:48.724Z,22.91
2017-07-28T14:27:16.966Z,22.75
2017-07-28T14:29:44.576Z,22.48
2017-07-28T14:32:12.636Z,22.85
2017-07-28T14:34:40.079Z,22.53
2017-07-28T14:37:08.046Z,22.45
2017-07-28T14:39:36.233Z,22.42
2017-07-28T14:42:03.779Z,22.59
2017-07-28T14:44:31.475Z,22.55
2017-07-28T14:46:59.613Z,22.63
2017-07-28T14:49:27.063Z,22.89
2017-07-28T14:51:54.601Z,22.79
2017-07-28T14:54:22.048Z,23.01
2017-07-28T14:56:50.019Z,23.00
2017-07-28T14:59:17.484Z,22.78
2017-07-28T15:01:44.956Z,22.84
2017-07-28T15:04:12.504Z,23.02
2017-07-28T15:06:40.720Z,23.03
2017-07-28T15:09:08.173Z,22.59
2017-07-28T15:11:35.661Z,22.83
2017-07-28T15:14:03.168Z,23.23
2017-07-28T15:16:30.656Z,23.31
2017-07-28T15:18:58.129Z,23.04
2017-07-28T15:21:25.584Z,23.09
2017-07-28T15:23:53.048Z,22.84
2017-07-28T15:26:20.531Z,22.90
2017-07-28T15:28:48.529Z,22.89
2017-07-28T15:31:16.317Z,22.91
2017-07-28T15:33:43.827Z,23.12
2017-07-28T15:36:11.272Z,22.77
2017-07-28T15:38:38.776Z,22.75
2017-07-28T15:41:06.245Z,22.78
2017-07-28T15:43:33.891Z,22.67
2017-07-28T15:46:01.349Z,22.78
2017-07-28T15:48:29.292Z,22.69
2017-07-28T15:50:57.532Z,22.62
2017-07-28T15:53:24.978Z,22.59
2017-07-28T15:55:52.436Z,22.65
2017-07-28T15:58:19.900Z,22.70
2017-07-28T16:00:47.374Z,23.10
2017-07-28T16:03:14.828Z,22.89
2017-07-28T16:05:42.829Z,22.61
2017-07-28T16:08:10.297Z,22.62
2017-07-28T16:10:37.745Z,22.66
2017-07-28T16:13:05.309Z,22.71
2017-07-28T16:15:33.025Z,22.70
2017-07-28T16:18:00.630Z,22.92
2017-07-28T16:20:28.074Z,22.58
2017-07-28T16:22:55.525Z,22.35
2017-07-28T16:25:22.992Z,22.46
2017-07-28T16:27:50.432Z,22.16
2017-07-28T16:30:18.108Z,22.19
2017-07-28T16:32:45.856Z,22.31
2017-07-28T16:35:13.325Z,22.29
2017-07-28T16:37:40.781Z,22.12
2017-07-28T16:40:08.246Z,22.05
2017-07-28T16:42:35.693Z,22.35
2017-07-28T16:45:03.225Z,22.09
2017-07-28T16:47:30.693Z,22.12
2017-07-28T16:49:58.143Z,22.02
2017-07-28T16:52:25.600Z,21.81
2017-07-28T16:54:53.075Z,21.89
2017-07-28T16:57:20.522Z,21.71
2017-07-28T16:59:48.236Z,21.84
2017-07-28T17:02:15.701Z,21.94
2017-07-28T17:04:43.161Z,21.95
2017-07-28T17:07:10.643Z,21.81
2017-07-28T17:09:38.107Z,21.72
2017-07-28T17:12:05.545Z,21.64
2017-07-28T17:14:33.008Z,21.89
2017-07-28T17:17:01.168Z,21.95
2017-07-28T17:19:29.388Z,22.19
2017-07-28T17:21:56.841Z,22.08
2017-07-28T17:24:24.662Z,21.95
2017-07-28T17:26:52.101Z,21.92
2017-07-28T17:29:20.002Z,21.75
2017-07-28T17:31:47.468Z,21.62
2017-07-28T17:34:14.909Z,21.61
2017-07-28T17:36:42.587Z,21.48
2017-07-28T17:39:10.912Z,21.33
2017-07-28T17:41:38.369Z,21.37
2017-07-28T17:44:06.182Z,21.42
2017-07-28T17:46:33.626Z,21.33
2017-07-28T17:49:01.081Z,21.25
2017-07-28T17:51:28.545Z,21.24
2017-07-28T17:53:56.025Z,21.32
2017-07-28T17:56:23.496Z,21.15
2017-07-28T17:58:51.089Z,21.18
2017-07-28T18:01:18.542Z,20.97
2017-07-28T18:03:45.986Z,20.85
2017-07-28T18:06:13.457Z,20.80
2017-07-28T18:08:40.895Z,20.89
2017-07-28T18:11:08.354Z,20.92
2017-07-28T18:13:35.833Z,20.84
2017-07-28T18:16:03.288Z,20.84
2017-07-28T18:18:30.745Z,20.95
2017-07-28T18:20:58.212Z,20.93
2017-07-28T18:23:25.680Z,20.85
2017-07-28T18:25:53.159Z,20.81
2017-07-28T18:28:20.602Z,20.80
2017-07-28T18:30:48.557Z,20.64
2017-07-28T18:33:16.001Z,20.78
2017-07-28T18:35:43.469Z,20.68
2017-07-28T18:38:10.948Z,20.59
2017-07-28T18:40:38.389Z,20.40
2017-07-28T18:43:05.869Z,20.34
2017-07-28T18:45:33.321Z,20.13
2017-07-28T18:48:00.765Z,20.07
2017-07-28T18:50:28.228Z,20.02
2017-07-28T18:52:55.673Z,19.90
2017-07-28T18:55:23.188Z,19.73
2017-07-28T18:57:50.901Z,19.83
2017-07-28T19:00:18.359Z,19.74
2017-07-28T19:02:45.804Z,19.66
2017-07-28T19:05:13.268Z,19.66
2017-07-28T19:07:40.724Z,19.57
2017-07-28T19:10:08.181Z,19.53
2017-07-28T19:12:35.978Z,19.53
2017-07-28T19:15:03.421Z,19.47
2017-07-28T19:17:30.882Z,19.49
2017-07-28T19:19:58.349Z,19.36
2017-07-28T19:22:25.833Z,19.38
2017-07-28T19:24:53.280Z,19.35
2017-07-28T19:27:20.764Z,19.22
2017-07-28T19:29:48.208Z,19.31
2017-07-28T19:32:15.677Z,19.15
2017-07-28T19:34:43.122Z,19.03
2017-07-28T19:37:10.597Z,19.10
2017-07-28T19:39:38.044Z,18.97
2017-07-28T19:42:05.536Z,18.84
2017-07-28T19:44:32.985Z,18.78
2017-07-28T19:47:00.438Z,18.69
2017-07-28T19:49:28.173Z,18.75
2017-07-28T19:51:55.625Z,18.70
2017-07-28T19:54:23.072Z,18.60
2017-07-28T19:56:51.185Z,18.62
2017-07-28T19:59:18.631Z,18.47
2017-07-28T20:01:46.077Z,18.35
2017-07-28T20:04:13.545Z,18.26
2017-07-28T20:06:41.018Z,18.15
2017-07-28T20:09:08.544Z,18.02
2017-07-28T20:14:12.909Z,17.86
2017-07-28T20:16:40.373Z,17.68
2017-07-28T20:19:07.904Z,17.58
2017-07-28T20:21:35.353Z,17.56
2017-07-28T20:24:03.054Z,17.57
2017-07-28T20:26:30.504Z,17.40
2017-07-28T20:28:57.955Z,17.43
2017-07-28T20:31:25.751Z,17.49
2017-07-28T20:33:53.192Z,17.57
2017-07-28T20:36:20.644Z,17.35
2017-07-28T20:38:48.982Z,17.22
2017-07-28T20:41:16.439Z,17.10
2017-07-28T20:43:43.921Z,17.02
2017-07-28T20:46:11.376Z,16.91
2017-07-28T20:48:38.864Z,16.83
2017-07-28T20:51:06.350Z,16.67
2017-07-28T20:53:33.916Z,16.62
2017-07-28T20:56:01.406Z,16.65
2017-07-28T20:58:28.882Z,16.76
2017-07-28T21:00:56.354Z,16.56
2017-07-28T21:03:23.817Z,16.45
2017-07-28T21:05:51.290Z,16.33
2017-07-28T21:08:18.749Z,16.26
2017-07-28T21:10:46.227Z,16.22
2017-07-28T21:13:13.669Z,16.36
2017-07-28T21:15:41.153Z,16.21
2017-07-28T21:18:08.621Z,16.26
2017-07-28T21:20:36.077Z,16.17
2017-07-28T21:23:03.944Z,16.17
2017-07-28T21:25:31.395Z,16.10
2017-07-28T21:27:58.840Z,16.07
2017-07-28T21:30:26.326Z,15.96
2017-07-28T21:32:53.776Z,15.97
2017-07-28T21:35:21.245Z,15.83
2017-07-28T21:37:48.688Z,15.84
2017-07-28T21:40:16.141Z,15.96
2017-07-28T21:42:43.928Z,16.02
2017-07-28T21:45:11.385Z,15.83
2017-07-28T21:47:38.849Z,15.99
2017-07-28T21:50:06.703Z,16.22
2017-07-28T21:52:34.298Z,16.08
2017-07-28T21:55:01.954Z,15.94
2017-07-28T21:57:29.452Z,15.86
2017-07-28T21:59:56.901Z,15.64
2017-07-28T22:02:24.551Z,15.53
2017-07-28T22:04:52.042Z,15.60
2017-07-28T22:07:19.500Z,15.58
2017-07-28T22:09:46.996Z,15.53
2017-07-28T22:12:14.491Z,15.43
2017-07-28T22:14:41.968Z,15.40
2017-07-28T22:17:09.459Z,15.38
2017-07-28T22:19:37.376Z,15.43
2017-07-28T22:22:04.852Z,15.47
2017-07-28T22:24:32.302Z,15.43
2017-07-28T22:26:59.794Z,15.31
2017-07-28T22:29:27.277Z,15.19
2017-07-28T22:31:55.141Z,15.23
2017-07-28T22:34:22.589Z,15.22
2017-07-28T22:36:50.125Z,15.17
2017-07-28T22:39:17.603Z,15.17
2017-07-28T22:41:45.041Z,15.01
2017-07-28T22:44:12.520Z,14.99
2017-07-28T22:46:39.973Z,15.00
2017-07-28T22:49:09.041Z,14.92
2017-07-28T22:51:36.585Z,14.85
2017-07-28T22:54:04.576Z,14.88
2017-07-28T22:56:32.044Z,14.94
2017-07-28T22:58:59.497Z,15.05
2017-07-28T23:01:27.094Z,14.99
2017-07-28T23:03:54.541Z,15.00
2017-07-28T23:06:21.996Z,14.85
2017-07-28T23:08:49.477Z,14.84
2017-07-28T23:11:17.032Z,14.77
2017-07-28T23:13:44.525Z,14.69
2017-07-28T23:16:12.012Z,14.69
2017-07-28T23:18:39.485Z,14.82
2017-07-28T23:21:06.939Z,14.86
2017-07-28T23:23:34.407Z,14.83
2017-07-28T23:26:01.885Z,14.74
2017-07-28T23:28:29.621Z,14.61
2017-07-28T23:30:57.065Z,14.56
2017-07-28T23:33:24.517Z,14.57
2017-07-28T23:35:51.989Z,14.57
2017-07-28T23:38:19.504Z,14.55
2017-07-28T23:40:46.971Z,14.49
2017-07-28T23:43:14.433Z,14.67
2017-07-28T23:45:41.914Z,14.79
2017-07-28T23:48:09.362Z,14.98
2017-07-28T23:50:36.884Z,14.83
2017-07-28T23:53:04.370Z,14.75
2017-07-28T23:55:31.837Z,14.76
2017-07-28T23:57:59.847Z,14.67
